Time;durP1;ratioP1;P1;durP2;ratioP2;P2;SDS_P1;SDS_P2;PMS_P1;PMS_P2;Temp;Humidity;BMP_temperature;BMP_pressure;BME280_temperature;BME280_humidity;BME280_pressure;Samples;Min_cycle;Max_cycle;Signal;HPM_P1;HPM_P2
2022/11/08 00:03:29;;;;;;;;;;;10.90;99.90;;;;;;5077134;28;19916;-69
2022/11/08 00:14:07;;;;;;;;;;;10.70;99.90;;;;;;5077847;28;19919;-69
2022/11/08 00:16:42;;;;;;;;;;;10.70;99.90;;;;;;5076444;28;20282;-69
2022/11/08 00:19:08;;;;;;;;;;;10.70;99.90;;;;;;5054476;28;19919;-69
2022/11/08 00:21:33;;;;;;;;;;;10.70;99.90;;;;;;5068091;28;19916;-69
2022/11/08 00:23:59;;;;;;;;;;;10.70;99.90;;;;;;5070593;28;19916;-69
2022/11/08 00:26:26;;;;;;;;;;;10.70;99.90;;;;;;5069537;28;19921;-69
2022/11/08 00:28:51;;;;;;;;;;;10.70;99.90;;;;;;5068192;28;19917;-69
2022/11/08 00:31:17;;;;;;;;;;;10.80;99.90;;;;;;5068884;28;20289;-69
2022/11/08 00:33:43;;;;;;;;;;;10.70;99.90;;;;;;5073775;28;19938;-69
2022/11/08 00:36:08;;;;;;;;;;;10.70;99.90;;;;;;5067224;28;19946;-69
2022/11/08 00:38:34;;;;;;;;;;;10.80;99.90;;;;;;5049480;28;19978;-69
2022/11/08 00:41:00;;;;;;;;;;;10.70;99.90;;;;;;5068041;28;20019;-69
2022/11/08 00:43:25;;;;;;;;;;;10.80;99.90;;;;;;5068465;28;19912;-69
2022/11/08 00:45:51;;;;;;;;;;;10.80;99.90;;;;;;5067720;28;19921;-69
2022/11/08 00:48:17;;;;;;;;;;;10.70;99.90;;;;;;5052592;28;19919;-69
2022/11/08 00:50:42;;;;;;;;;;;10.70;99.90;;;;;;5050117;28;20007;-69
2022/11/08 00:53:11;;;;;;;;;;;10.70;99.90;;;;;;5080339;28;19956;-69
2022/11/08 00:55:40;;;;;;;;;;;10.70;99.90;;;;;;5091324;28;19908;-69
2022/11/08 01:00:58;;;;;;;;;;;10.60;99.90;;;;;;5071359;28;20286;-69
2022/11/08 01:03:24;;;;;;;;;;;10.60;99.90;;;;;;5058420;28;20003;-69
2022/11/08 01:05:52;;;;;;;;;;;10.60;99.90;;;;;;5076153;28;19954;-69
2022/11/08 01:08:18;;;;;;;;;;;10.50;99.90;;;;;;5050685;28;19959;-69
2022/11/08 01:10:46;;;;;;;;;;;10.50;99.90;;;;;;5047232;28;19913;-69
2022/11/08 01:13:21;;;;;;;;;;;10.50;99.90;;;;;;5066348;28;19917;-69
2022/11/08 01:15:52;;;;;;;;;;;10.50;99.90;;;;;;5069593;28;19942;-69
2022/11/08 01:18:27;;;;;;;;;;;10.40;99.90;;;;;;5065693;28;20122;-69
2022/11/08 01:20:53;;;;;;;;;;;10.50;99.90;;;;;;5051542;28;20294;-69
2022/11/08 01:23:20;;;;;;;;;;;10.50;99.90;;;;;;5064750;28;20431;-69
2022/11/08 01:25:55;;;;;;;;;;;10.50;99.90;;;;;;5078844;28;19916;-69
2022/11/08 01:28:26;;;;;;;;;;;10.50;99.90;;;;;;5069622;28;19912;-70
2022/11/08 01:31:12;;;;;;;;;;;10.40;99.90;;;;;;5071333;28;19912;-70
2022/11/08 01:33:48;;;;;;;;;;;10.40;99.90;;;;;;5058974;28;20007;-69
2022/11/08 01:36:15;;;;;;;;;;;10.40;99.90;;;;;;5066592;28;20290;-69
2022/11/08 01:38:41;;;;;;;;;;;10.30;99.90;;;;;;5067483;28;20200;-69
2022/11/08 01:41:07;;;;;;;;;;;10.40;99.90;;;;;;5067294;28;19928;-69
2022/11/08 01:43:36;;;;;;;;;;;10.40;99.90;;;;;;5068408;28;19958;-69
2022/11/08 01:46:01;;;;;;;;;;;10.40;99.90;;;;;;5069311;28;20020;-70
2022/11/08 01:48:27;;;;;;;;;;;10.40;99.90;;;;;;5056226;28;20003;-69
2022/11/08 01:50:54;;;;;;;;;;;10.40;99.90;;;;;;5070228;28;19916;-69
2022/11/08 01:53:20;;;;;;;;;;;10.40;99.90;;;;;;5081170;28;19999;-69
2022/11/08 01:55:46;;;;;;;;;;;10.40;99.90;;;;;;5075477;28;19964;-69
2022/11/08 01:58:14;;;;;;;;;;;10.50;99.90;;;;;;5074878;28;19909;-69
2022/11/08 02:00:39;;;;;;;;;;;10.40;99.90;;;;;;5056701;28;19912;-69
2022/11/08 02:03:07;;;;;;;;;;;10.40;99.90;;;;;;5073599;28;19935;-69
2022/11/08 02:05:33;;;;;;;;;;;10.40;99.90;;;;;;5055994;28;19913;-69
2022/11/08 02:08:05;;;;;;;;;;;10.50;99.90;;;;;;5067059;28;20286;-69
2022/11/08 02:10:32;;;;;;;;;;;10.50;99.90;;;;;;5082628;28;19912;-69
2022/11/08 02:12:58;;;;;;;;;;;10.50;99.90;;;;;;5079172;28;19912;-69
2022/11/08 02:15:25;;;;;;;;;;;10.50;99.90;;;;;;5080074;28;19916;-69
2022/11/08 02:17:51;;;;;;;;;;;10.40;99.90;;;;;;5064836;28;19912;-69
2022/11/08 02:20:17;;;;;;;;;;;10.40;99.90;;;;;;5080825;28;20330;-69
2022/11/08 02:22:49;;;;;;;;;;;10.40;99.90;;;;;;5075506;28;19966;-69
2022/11/08 02:25:14;;;;;;;;;;;10.40;99.90;;;;;;5058232;28;19944;-69
2022/11/08 02:27:40;;;;;;;;;;;10.40;99.90;;;;;;5090540;28;20258;-69
2022/11/08 02:30:06;;;;;;;;;;;10.40;99.90;;;;;;5082432;28;20069;-69
2022/11/08 02:32:38;;;;;;;;;;;10.30;99.90;;;;;;5076092;28;19909;-69
2022/11/08 02:35:05;;;;;;;;;;;10.40;99.90;;;;;;5073140;28;19920;-69
2022/11/08 02:37:31;;;;;;;;;;;10.40;99.90;;;;;;5061225;28;19923;-69
2022/11/08 02:39:57;;;;;;;;;;;10.40;99.90;;;;;;5065959;28;19979;-69
2022/11/08 02:42:22;;;;;;;;;;;10.40;99.90;;;;;;5067109;28;20008;-69
2022/11/08 02:44:48;;;;;;;;;;;10.40;99.90;;;;;;5068826;28;19916;-69
2022/11/08 02:47:14;;;;;;;;;;;10.30;99.90;;;;;;5066885;28;19912;-69
2022/11/08 02:49:40;;;;;;;;;;;10.40;99.90;;;;;;5048283;28;20355;-69
2022/11/08 02:52:06;;;;;;;;;;;10.40;99.90;;;;;;5054012;28;19912;-69
2022/11/08 02:54:32;;;;;;;;;;;10.40;99.90;;;;;;5074859;28;19967;-69
2022/11/08 02:57:18;;;;;;;;;;;10.40;99.90;;;;;;5093678;28;19908;-69
2022/11/08 02:59:50;;;;;;;;;;;10.50;99.90;;;;;;5052974;28;19909;-69
2022/11/08 03:02:18;;;;;;;;;;;10.50;99.90;;;;;;5053186;28;19913;-70
2022/11/08 03:04:47;;;;;;;;;;;10.50;99.90;;;;;;5052667;28;19940;-68
2022/11/08 03:07:13;;;;;;;;;;;10.40;99.90;;;;;;5087739;28;19912;-69
2022/11/08 03:09:39;;;;;;;;;;;10.40;99.90;;;;;;5077172;28;19923;-69
2022/11/08 03:12:05;;;;;;;;;;;10.40;99.90;;;;;;5067508;28;19916;-69
2022/11/08 03:14:30;;;;;;;;;;;10.30;99.90;;;;;;5066974;28;20050;-69
2022/11/08 03:16:56;;;;;;;;;;;10.40;99.90;;;;;;5065677;28;19970;-69
2022/11/08 03:19:22;;;;;;;;;;;10.40;99.90;;;;;;5048054;28;19913;-69
2022/11/08 03:21:47;;;;;;;;;;;10.30;99.90;;;;;;5045792;28;20414;-69
2022/11/08 03:24:13;;;;;;;;;;;10.30;99.90;;;;;;5066212;28;19950;-70
2022/11/08 03:26:39;;;;;;;;;;;10.30;99.90;;;;;;5048337;28;20437;-70
2022/11/08 03:29:04;;;;;;;;;;;10.40;99.90;;;;;;5065289;28;20003;-69
2022/11/08 03:31:30;;;;;;;;;;;10.30;99.90;;;;;;5065161;28;19955;-69
2022/11/08 03:33:56;;;;;;;;;;;10.40;99.90;;;;;;5065363;28;20401;-69
2022/11/08 03:36:21;;;;;;;;;;;10.40;99.90;;;;;;5044949;28;19922;-69
2022/11/08 03:38:47;;;;;;;;;;;10.30;99.90;;;;;;5064526;28;20018;-69
2022/11/08 03:41:13;;;;;;;;;;;10.30;99.90;;;;;;5065707;28;20407;-69
2022/11/08 03:43:38;;;;;;;;;;;10.30;99.90;;;;;;5056001;28;20417;-69
2022/11/08 03:46:04;;;;;;;;;;;10.30;99.90;;;;;;5056139;28;19999;-69
2022/11/08 03:48:30;;;;;;;;;;;10.20;99.90;;;;;;5065383;28;20028;-69
2022/11/08 03:50:55;;;;;;;;;;;10.20;99.90;;;;;;5071316;28;19928;-69
2022/11/08 03:53:21;;;;;;;;;;;10.20;99.90;;;;;;5094895;28;19951;-68
2022/11/08 03:55:48;;;;;;;;;;;10.20;99.90;;;;;;5090624;28;20309;-68
2022/11/08 03:58:14;;;;;;;;;;;10.10;99.90;;;;;;5079937;28;19942;-68
2022/11/08 04:00:40;;;;;;;;;;;10.20;99.90;;;;;;5094788;28;19938;-68
2022/11/08 04:03:06;;;;;;;;;;;10.20;99.90;;;;;;5085276;28;20340;-68
2022/11/08 04:05:32;;;;;;;;;;;10.20;99.90;;;;;;5074848;28;19970;-68
2022/11/08 04:07:59;;;;;;;;;;;10.20;99.90;;;;;;5073826;28;19916;-68
2022/11/08 04:10:24;;;;;;;;;;;10.20;99.90;;;;;;5075449;28;19913;-68
2022/11/08 04:15:35;;;;;;;;;;;10.10;99.90;;;;;;5081162;28;19934;-68
2022/11/08 04:23:31;;;;;;;;;;;10.00;99.90;;;;;;5083875;28;19919;-68
2022/11/08 04:25:58;;;;;;;;;;;10.10;99.90;;;;;;5084376;28;20004;-68
2022/11/08 04:28:31;;;;;;;;;;;10.10;99.90;;;;;;5077136;28;19909;-68
2022/11/08 04:31:01;;;;;;;;;;;10.10;99.90;;;;;;5064202;28;19909;-68
2022/11/08 04:33:27;;;;;;;;;;;10.00;99.90;;;;;;5066813;28;20000;-68
2022/11/08 04:35:53;;;;;;;;;;;10.00;99.90;;;;;;5084009;28;19909;-68
2022/11/08 04:38:19;;;;;;;;;;;10.00;99.90;;;;;;5066602;28;19971;-68
2022/11/08 04:40:45;;;;;;;;;;;9.90;99.90;;;;;;5084118;28;19912;-68
2022/11/08 04:43:14;;;;;;;;;;;9.90;99.90;;;;;;5082685;28;20798;-68
2022/11/08 04:45:42;;;;;;;;;;;9.90;99.90;;;;;;5056993;28;20398;-68
2022/11/08 04:48:08;;;;;;;;;;;9.90;99.90;;;;;;5076309;28;20011;-68
2022/11/08 04:50:36;;;;;;;;;;;9.90;99.90;;;;;;5064926;28;19959;-68
2022/11/08 04:53:03;;;;;;;;;;;9.80;99.90;;;;;;5075795;28;19916;-68
2022/11/08 04:55:28;;;;;;;;;;;9.90;99.90;;;;;;5075135;28;19917;-68
2022/11/08 04:57:56;;;;;;;;;;;9.80;99.90;;;;;;5075566;28;19913;-66
2022/11/08 05:00:22;;;;;;;;;;;9.80;99.90;;;;;;5075785;28;19931;-68
2022/11/08 05:02:50;;;;;;;;;;;9.80;99.90;;;;;;5102371;28;19947;-68
2022/11/08 05:05:16;;;;;;;;;;;9.80;99.90;;;;;;5086288;28;20362;-68
2022/11/08 05:07:42;;;;;;;;;;;9.80;99.90;;;;;;5060299;28;19924;-68
2022/11/08 05:10:07;;;;;;;;;;;9.80;99.90;;;;;;5090209;28;19912;-68
2022/11/08 05:12:33;;;;;;;;;;;9.90;99.90;;;;;;5090190;28;19912;-68
2022/11/08 05:14:59;;;;;;;;;;;9.90;99.90;;;;;;5093397;28;19912;-68
2022/11/08 05:17:24;;;;;;;;;;;9.80;99.90;;;;;;5084184;28;20003;-68
2022/11/08 05:25:19;;;;;;;;;;;9.80;99.90;;;;;;5098150;28;19942;-69
2022/11/08 05:27:44;;;;;;;;;;;9.80;99.90;;;;;;5090954;28;19992;-68
2022/11/08 05:30:10;;;;;;;;;;;9.80;99.90;;;;;;5090329;28;19967;-68
2022/11/08 05:32:36;;;;;;;;;;;9.70;99.90;;;;;;5064946;28;19955;-68
2022/11/08 05:35:01;;;;;;;;;;;9.70;99.90;;;;;;5064152;28;19912;-68
2022/11/08 05:37:27;;;;;;;;;;;9.70;99.90;;;;;;5056788;28;19971;-68
2022/11/08 05:39:53;;;;;;;;;;;9.70;99.90;;;;;;5075529;28;19916;-68
2022/11/08 05:42:19;;;;;;;;;;;9.70;99.90;;;;;;5090098;28;19908;-68
2022/11/08 05:44:44;;;;;;;;;;;9.70;99.90;;;;;;5102075;28;19964;-68
2022/11/08 05:47:10;;;;;;;;;;;9.70;99.90;;;;;;5079537;28;19920;-68
2022/11/08 05:49:36;;;;;;;;;;;9.60;99.90;;;;;;5077860;28;20271;-68
2022/11/08 05:52:02;;;;;;;;;;;9.60;99.90;;;;;;5085684;28;19909;-68
2022/11/08 05:54:27;;;;;;;;;;;9.60;99.90;;;;;;5083604;28;19959;-68
2022/11/08 05:56:53;;;;;;;;;;;9.70;99.90;;;;;;5087270;28;20332;-68
2022/11/08 05:59:21;;;;;;;;;;;9.70;99.90;;;;;;5086961;28;19919;-68
2022/11/08 06:01:47;;;;;;;;;;;9.70;99.90;;;;;;5086120;28;19934;-68
2022/11/08 06:04:13;;;;;;;;;;;9.70;99.90;;;;;;5089761;28;19944;-68
2022/11/08 06:06:38;;;;;;;;;;;9.70;99.90;;;;;;5084210;28;20297;-68
2022/11/08 06:09:04;;;;;;;;;;;9.80;99.90;;;;;;5070850;28;19947;-68
2022/11/08 06:11:30;;;;;;;;;;;9.80;99.90;;;;;;5067399;28;19999;-68
2022/11/08 06:13:55;;;;;;;;;;;9.80;99.90;;;;;;5083355;28;19920;-68
2022/11/08 06:16:22;;;;;;;;;;;9.80;99.90;;;;;;5091342;28;19940;-68
2022/11/08 06:18:47;;;;;;;;;;;9.80;99.90;;;;;;5063682;28;19909;-67
2022/11/08 06:21:14;;;;;;;;;;;9.80;99.90;;;;;;5082031;28;20370;-68
2022/11/08 06:23:41;;;;;;;;;;;9.80;99.90;;;;;;5063355;28;19912;-68
2022/11/08 06:26:07;;;;;;;;;;;9.90;99.90;;;;;;5081735;28;19958;-68
2022/11/08 06:28:33;;;;;;;;;;;9.90;99.90;;;;;;5064769;28;19908;-68
2022/11/08 06:31:03;;;;;;;;;;;9.90;99.90;;;;;;5065019;28;19909;-68
2022/11/08 06:33:28;;;;;;;;;;;9.90;99.90;;;;;;5070754;28;20015;-68
2022/11/08 06:35:54;;;;;;;;;;;10.00;99.90;;;;;;5093292;28;19915;-68
2022/11/08 06:38:20;;;;;;;;;;;10.00;99.90;;;;;;5098119;28;19931;-69
2022/11/08 06:40:46;;;;;;;;;;;10.00;99.90;;;;;;5080918;28;19952;-69
2022/11/08 06:43:12;;;;;;;;;;;10.10;99.90;;;;;;5081230;28;19912;-68
2022/11/08 06:45:38;;;;;;;;;;;10.10;99.90;;;;;;5058594;28;20382;-69
2022/11/08 06:48:04;;;;;;;;;;;10.20;99.90;;;;;;5080641;28;20410;-68
2022/11/08 06:50:31;;;;;;;;;;;10.20;99.90;;;;;;5085917;28;19908;-68
2022/11/08 06:53:03;;;;;;;;;;;10.20;99.90;;;;;;5077775;28;19975;-68
2022/11/08 06:55:29;;;;;;;;;;;10.20;99.90;;;;;;5095459;28;19908;-69
2022/11/08 06:57:55;;;;;;;;;;;10.30;99.90;;;;;;5076234;28;19913;-68
2022/11/08 07:00:21;;;;;;;;;;;10.30;99.90;;;;;;5070887;28;20011;-69
2022/11/08 07:02:53;;;;;;;;;;;10.40;99.90;;;;;;5067569;28;20311;-69
2022/11/08 07:05:18;;;;;;;;;;;10.40;99.90;;;;;;5060537;28;19909;-69
2022/11/08 07:07:50;;;;;;;;;;;10.60;99.90;;;;;;5073397;28;19915;-68
2022/11/08 07:10:20;;;;;;;;;;;10.60;99.90;;;;;;5079908;28;19915;-68
2022/11/08 07:12:46;;;;;;;;;;;10.60;99.90;;;;;;5079977;28;20044;-67
2022/11/08 07:15:15;;;;;;;;;;;10.60;99.90;;;;;;5059136;28;20418;-67
2022/11/08 07:17:40;;;;;;;;;;;10.70;99.90;;;;;;5065198;28;19913;-68
2022/11/08 07:20:07;;;;;;;;;;;10.80;99.90;;;;;;5081036;28;19939;-68
2022/11/08 07:22:36;;;;;;;;;;;10.90;99.90;;;;;;5081335;28;19920;-68
2022/11/08 07:25:01;;;;;;;;;;;10.90;99.90;;;;;;5065667;28;19916;-68
2022/11/08 07:27:27;;;;;;;;;;;11.00;99.90;;;;;;5070516;28;19920;-67
2022/11/08 07:29:53;;;;;;;;;;;11.10;99.90;;;;;;5072965;28;19959;-68
2022/11/08 07:32:19;;;;;;;;;;;11.20;99.90;;;;;;5080143;28;20363;-69
2022/11/08 07:34:57;;;;;;;;;;;11.20;99.90;;;;;;5079478;28;19984;-68
2022/11/08 07:37:23;;;;;;;;;;;11.30;99.90;;;;;;5101286;28;19908;-68
2022/11/08 07:39:49;;;;;;;;;;;11.50;99.90;;;;;;5083078;28;19908;-69
2022/11/08 07:42:14;;;;;;;;;;;11.50;99.90;;;;;;5049156;28;19908;-67
2022/11/08 07:44:40;;;;;;;;;;;11.70;99.90;;;;;;5060547;28;19916;-67
2022/11/08 07:47:06;;;;;;;;;;;11.80;99.90;;;;;;5069167;28;21661;-67
2022/11/08 07:49:31;;;;;;;;;;;11.90;99.90;;;;;;5065454;28;19951;-67
2022/11/08 07:51:57;;;;;;;;;;;12.00;99.90;;;;;;5074452;28;19955;-67
2022/11/08 07:54:25;;;;;;;;;;;12.20;99.90;;;;;;5081264;28;19954;-68
2022/11/08 07:56:54;;;;;;;;;;;12.30;99.90;;;;;;5083049;28;20010;-67
2022/11/08 07:59:20;;;;;;;;;;;12.30;99.90;;;;;;5084426;28;20057;-68
2022/11/08 08:01:45;;;;;;;;;;;12.40;99.90;;;;;;5083716;28;20310;-68
2022/11/08 08:04:11;;;;;;;;;;;12.40;99.90;;;;;;5077691;28;19986;-69
2022/11/08 08:06:37;;;;;;;;;;;12.50;99.90;;;;;;5069750;28;20382;-69
2022/11/08 08:09:03;;;;;;;;;;;12.50;99.90;;;;;;5060545;28;19916;-70
2022/11/08 08:11:29;;;;;;;;;;;12.60;99.90;;;;;;5079887;28;20074;-69
2022/11/08 08:13:55;;;;;;;;;;;12.70;99.90;;;;;;5077616;28;19908;-69
2022/11/08 08:16:21;;;;;;;;;;;12.70;99.90;;;;;;5059300;28;20313;-69
2022/11/08 08:18:50;;;;;;;;;;;12.80;99.90;;;;;;5077085;28;20362;-69
2022/11/08 08:21:15;;;;;;;;;;;13.00;99.90;;;;;;5058874;28;20011;-69
2022/11/08 08:23:41;;;;;;;;;;;13.10;99.90;;;;;;5077822;28;20407;-69
2022/11/08 08:26:07;;;;;;;;;;;13.20;99.90;;;;;;5077357;28;19915;-69
2022/11/08 08:28:32;;;;;;;;;;;13.30;99.90;;;;;;5077614;28;19916;-67
2022/11/08 08:30:58;;;;;;;;;;;13.30;99.90;;;;;;5076993;28;19913;-70
2022/11/08 08:33:24;;;;;;;;;;;13.30;99.90;;;;;;5076364;28;20449;-69
2022/11/08 08:35:53;;;;;;;;;;;13.30;99.90;;;;;;5058614;28;19913;-69
2022/11/08 08:38:18;;;;;;;;;;;13.30;99.90;;;;;;5076677;28;19991;-69
2022/11/08 08:40:44;;;;;;;;;;;13.40;99.90;;;;;;5069772;28;20019;-70
2022/11/08 08:43:10;;;;;;;;;;;13.50;99.90;;;;;;5050466;28;19912;-70
2022/11/08 08:45:36;;;;;;;;;;;13.60;99.90;;;;;;5056786;28;20389;-70
2022/11/08 08:48:02;;;;;;;;;;;13.70;99.90;;;;;;5069888;28;19923;-68
2022/11/08 08:50:28;;;;;;;;;;;13.80;99.90;;;;;;5052189;28;19912;-69
2022/11/08 08:52:58;;;;;;;;;;;13.80;99.90;;;;;;5069194;28;19913;-69
2022/11/08 08:55:23;;;;;;;;;;;14.00;99.90;;;;;;5069065;28;19912;-70
2022/11/08 08:57:49;;;;;;;;;;;14.10;99.90;;;;;;5069850;28;19982;-69
2022/11/08 09:00:15;;;;;;;;;;;14.10;99.90;;;;;;5078350;28;19923;-68
2022/11/08 09:02:41;;;;;;;;;;;14.10;99.90;;;;;;5092748;28;19928;-69
2022/11/08 09:05:07;;;;;;;;;;;14.20;99.90;;;;;;5087237;28;19912;-69
2022/11/08 09:07:32;;;;;;;;;;;14.20;99.90;;;;;;5091773;28;19919;-70
2022/11/08 09:10:00;;;;;;;;;;;14.30;99.90;;;;;;5078928;28;20193;-69
2022/11/08 09:12:26;;;;;;;;;;;14.40;99.90;;;;;;5075560;28;20345;-70
2022/11/08 09:14:52;;;;;;;;;;;14.60;99.90;;;;;;5066090;28;20006;-69
2022/11/08 09:17:18;;;;;;;;;;;14.60;99.90;;;;;;5075477;28;20250;-70
2022/11/08 09:19:43;;;;;;;;;;;14.60;99.90;;;;;;5079966;28;19969;-70
2022/11/08 09:22:09;;;;;;;;;;;14.80;99.90;;;;;;5067052;28;19976;-69
2022/11/08 09:24:35;;;;;;;;;;;14.80;99.90;;;;;;5065211;28;20413;-70
2022/11/08 09:27:03;;;;;;;;;;;14.80;99.90;;;;;;5078723;28;20438;-69
2022/11/08 09:29:30;;;;;;;;;;;14.90;99.90;;;;;;5057283;28;19912;-70
2022/11/08 09:31:55;;;;;;;;;;;14.90;99.90;;;;;;5062033;28;19913;-70
2022/11/08 09:34:21;;;;;;;;;;;15.00;99.90;;;;;;5055108;28;19913;-70
2022/11/08 09:36:47;;;;;;;;;;;15.10;99.90;;;;;;5047477;28;19913;-69
2022/11/08 09:39:12;;;;;;;;;;;15.10;99.90;;;;;;5085672;28;19919;-70
2022/11/08 09:41:44;;;;;;;;;;;15.20;99.90;;;;;;5074767;28;20645;-70
2022/11/08 09:44:10;;;;;;;;;;;15.20;99.90;;;;;;5085867;28;20397;-70
2022/11/08 09:46:43;;;;;;;;;;;15.30;99.90;;;;;;5069952;28;19917;-70
2022/11/08 09:49:14;;;;;;;;;;;15.30;99.90;;;;;;5075488;28;19912;-70
2022/11/08 09:51:39;;;;;;;;;;;15.40;99.90;;;;;;5075651;28;19944;-70
2022/11/08 09:54:07;;;;;;;;;;;15.50;99.90;;;;;;5073741;28;20385;-70
2022/11/08 09:56:37;;;;;;;;;;;15.50;99.90;;;;;;5049990;28;19917;-70
2022/11/08 09:59:02;;;;;;;;;;;15.50;99.90;;;;;;5071432;28;19921;-70
2022/11/08 10:01:29;;;;;;;;;;;15.50;99.90;;;;;;5055594;28;20334;-70
2022/11/08 10:03:57;;;;;;;;;;;15.60;99.90;;;;;;5089804;28;19912;-69
2022/11/08 10:06:30;;;;;;;;;;;15.70;99.90;;;;;;5078221;28;19912;-69
2022/11/08 10:09:14;;;;;;;;;;;15.70;99.90;;;;;;5081483;28;19920;-72
2022/11/08 10:11:45;;;;;;;;;;;15.80;99.90;;;;;;5096175;28;19971;-70
2022/11/08 10:14:11;;;;;;;;;;;15.90;99.90;;;;;;5081930;28;19913;-70
2022/11/08 10:16:47;;;;;;;;;;;15.90;99.90;;;;;;5071518;28;20382;-70
2022/11/08 10:19:15;;;;;;;;;;;16.00;99.90;;;;;;5068096;28;20226;-70
2022/11/08 10:22:07;;;;;;;;;;;16.00;99.90;;;;;;5055866;28;19943;-70
2022/11/08 10:24:34;;;;;;;;;;;16.00;99.90;;;;;;5072420;28;20058;-70
2022/11/08 10:27:01;;;;;;;;;;;16.00;99.90;;;;;;5056655;28;20354;-70
2022/11/08 10:29:30;;;;;;;;;;;16.10;99.90;;;;;;5069673;28;19999;-70
2022/11/08 10:32:14;;;;;;;;;;;16.20;99.90;;;;;;5074225;28;19988;-69
2022/11/08 10:34:48;;;;;;;;;;;16.10;99.90;;;;;;5052980;28;19916;-70
2022/11/08 10:37:14;;;;;;;;;;;16.10;99.90;;;;;;5073991;28;20017;-69
2022/11/08 10:39:43;;;;;;;;;;;16.10;99.90;;;;;;5074448;28;19909;-70
2022/11/08 10:42:12;;;;;;;;;;;16.10;99.90;;;;;;5056279;28;19919;-69
2022/11/08 10:44:39;;;;;;;;;;;16.30;99.90;;;;;;5074378;28;19909;-70
2022/11/08 10:47:06;;;;;;;;;;;16.20;99.90;;;;;;5055393;28;20290;-69
2022/11/08 10:49:34;;;;;;;;;;;16.20;99.90;;;;;;5071753;28;19994;-70
2022/11/08 10:52:01;;;;;;;;;;;16.30;99.90;;;;;;5081358;28;19912;-70
2022/11/08 10:54:38;;;;;;;;;;;16.40;99.90;;;;;;5071580;28;20003;-69
2022/11/08 10:57:04;;;;;;;;;;;16.40;99.90;;;;;;5075679;28;19974;-70
2022/11/08 10:59:31;;;;;;;;;;;16.30;99.90;;;;;;5078776;28;20300;-71
2022/11/08 11:01:57;;;;;;;;;;;16.30;99.90;;;;;;5072218;28;19982;-70
2022/11/08 11:04:25;;;;;;;;;;;16.30;99.90;;;;;;5083414;28;19912;-70
2022/11/08 11:06:51;;;;;;;;;;;16.30;99.90;;;;;;5081044;28;19912;-70
2022/11/08 11:09:18;;;;;;;;;;;16.30;99.90;;;;;;5087579;28;20370;-70
2022/11/08 11:11:46;;;;;;;;;;;16.30;99.90;;;;;;5066396;28;20027;-70
2022/11/08 11:14:14;;;;;;;;;;;16.30;99.90;;;;;;5058845;28;19951;-70
2022/11/08 11:16:58;;;;;;;;;;;16.40;99.90;;;;;;5075511;28;19987;-70
2022/11/08 11:19:25;;;;;;;;;;;16.50;99.90;;;;;;5075376;28;19919;-69
2022/11/08 11:21:54;;;;;;;;;;;16.50;99.90;;;;;;5070446;28;19924;-70
2022/11/08 11:24:20;;;;;;;;;;;16.50;99.90;;;;;;5076610;28;19916;-70
2022/11/08 11:26:59;;;;;;;;;;;16.50;99.90;;;;;;5069539;28;20003;-70
2022/11/08 11:29:25;;;;;;;;;;;16.50;99.90;;;;;;5055225;28;20392;-70
2022/11/08 11:31:51;;;;;;;;;;;16.60;99.90;;;;;;5063172;28;19999;-69
2022/11/08 11:34:17;;;;;;;;;;;16.50;99.90;;;;;;5059022;28;20282;-70
2022/11/08 11:37:03;;;;;;;;;;;16.40;99.90;;;;;;5080893;28;19912;-70
2022/11/08 11:39:34;;;;;;;;;;;16.50;99.90;;;;;;5053863;28;19912;-70
2022/11/08 11:42:17;;;;;;;;;;;16.50;99.90;;;;;;5073033;28;19920;-70
2022/11/08 11:44:48;;;;;;;;;;;16.50;99.90;;;;;;5090241;28;19931;-70
2022/11/08 11:47:25;;;;;;;;;;;16.50;99.90;;;;;;5060438;28;20366;-70
2022/11/08 11:49:52;;;;;;;;;;;16.60;99.90;;;;;;5068296;28;20109;-70
2022/11/08 11:52:18;;;;;;;;;;;16.60;99.90;;;;;;5075110;28;19913;-70
2022/11/08 11:54:47;;;;;;;;;;;16.60;99.90;;;;;;5072766;28;19967;-70
2022/11/08 11:57:21;;;;;;;;;;;16.50;99.90;;;;;;5072003;28;19912;-71
2022/11/08 11:59:50;;;;;;;;;;;16.60;99.90;;;;;;5073350;28;19919;-70
2022/11/08 12:02:16;;;;;;;;;;;16.50;99.90;;;;;;5049229;28;19919;-70
2022/11/08 12:05:00;;;;;;;;;;;16.50;99.90;;;;;;5070290;28;20297;-70
2022/11/08 12:07:28;;;;;;;;;;;16.50;99.90;;;;;;5088718;28;20235;-70
2022/11/08 12:10:11;;;;;;;;;;;16.40;99.90;;;;;;5045985;28;19975;-70
2022/11/08 12:12:40;;;;;;;;;;;16.50;99.90;;;;;;5057967;28;19994;-71
2022/11/08 12:15:24;;;;;;;;;;;16.50;99.90;;;;;;5087034;28;19958;-70
2022/11/08 12:18:03;;;;;;;;;;;16.50;99.90;;;;;;5075378;28;19912;-70
2022/11/08 12:20:29;;;;;;;;;;;16.50;99.90;;;;;;5061833;28;19939;-70
2022/11/08 12:23:15;;;;;;;;;;;16.50;99.90;;;;;;5060967;28;19912;-70
2022/11/08 12:26:06;;;;;;;;;;;16.60;99.90;;;;;;5080070;28;19962;-70
2022/11/08 12:28:47;;;;;;;;;;;16.70;99.90;;;;;;5068962;28;19962;-69
2022/11/08 12:31:20;;;;;;;;;;;16.70;99.90;;;;;;5054021;28;19951;-69
2022/11/08 12:33:52;;;;;;;;;;;16.80;99.90;;;;;;5061715;28;19913;-70
2022/11/08 12:36:31;;;;;;;;;;;16.80;99.90;;;;;;5061671;28;19938;-70
2022/11/08 12:39:13;;;;;;;;;;;16.90;99.90;;;;;;5067892;28;19989;-70
2022/11/08 12:41:44;;;;;;;;;;;16.90;99.90;;;;;;5068201;28;19935;-70
2022/11/08 12:44:35;;;;;;;;;;;17.00;99.90;;;;;;5076882;28;19912;-70
2022/11/08 12:47:07;;;;;;;;;;;17.10;99.90;;;;;;5020495;28;19948;-70
2022/11/08 12:50:06;;;;;;;;;;;17.10;99.90;;;;;;5054894;28;19966;-70
2022/11/08 12:52:50;;;;;;;;;;;17.20;99.90;;;;;;5004058;28;20400;-70
2022/11/08 12:55:21;;;;;;;;;;;17.20;99.90;;;;;;5086744;28;19912;-71
2022/11/08 12:57:47;;;;;;;;;;;17.40;99.90;;;;;;5083988;28;19912;-70
2022/11/08 13:00:17;;;;;;;;;;;17.50;99.90;;;;;;5066730;28;20290;-70
2022/11/08 13:02:45;;;;;;;;;;;17.40;99.90;;;;;;5058137;28;19920;-69
2022/11/08 13:05:23;;;;;;;;;;;17.50;99.90;;;;;;5079554;28;19916;-70
2022/11/08 13:08:03;;;;;;;;;;;17.50;99.90;;;;;;5082077;28;19965;-69
2022/11/08 13:10:48;;;;;;;;;;;17.40;99.90;;;;;;5067223;28;19912;-70
2022/11/08 13:13:14;;;;;;;;;;;17.40;99.90;;;;;;5076265;28;19956;-69
2022/11/08 13:15:59;;;;;;;;;;;17.40;99.90;;;;;;5063755;28;19912;-69
2022/11/08 13:18:31;;;;;;;;;;;17.30;99.90;;;;;;5069956;28;19912;-69
2022/11/08 13:20:57;;;;;;;;;;;17.20;99.90;;;;;;5071635;28;19917;-69
2022/11/08 13:23:26;;;;;;;;;;;17.10;99.90;;;;;;5087185;28;19919;-69
2022/11/08 13:25:52;;;;;;;;;;;17.00;99.90;;;;;;5080607;28;19915;-70
2022/11/08 13:28:37;;;;;;;;;;;16.90;99.90;;;;;;5082799;28;19908;-70
2022/11/08 13:31:12;;;;;;;;;;;16.90;99.90;;;;;;5075909;28;19924;-70
2022/11/08 13:33:40;;;;;;;;;;;16.70;99.90;;;;;;5059045;28;20202;-69
2022/11/08 13:36:30;;;;;;;;;;;16.70;99.90;;;;;;5073327;28;19991;-69
2022/11/08 13:39:01;;;;;;;;;;;16.70;99.90;;;;;;5074516;28;19988;-69
2022/11/08 13:41:27;;;;;;;;;;;16.60;99.90;;;;;;5074004;28;19966;-69
2022/11/08 13:43:54;;;;;;;;;;;16.60;99.90;;;;;;5059957;28;20343;-69
2022/11/08 13:46:29;;;;;;;;;;;16.60;99.90;;;;;;5079018;28;19955;-69
2022/11/08 13:49:02;;;;;;;;;;;16.60;99.90;;;;;;5081381;28;19980;-69
2022/11/08 13:51:28;;;;;;;;;;;16.50;99.90;;;;;;5088358;28;19954;-68
2022/11/08 13:53:56;;;;;;;;;;;16.40;99.90;;;;;;5082082;28;20248;-68
2022/11/08 13:56:39;;;;;;;;;;;16.40;99.90;;;;;;5073104;28;19969;-69
2022/11/08 13:59:24;;;;;;;;;;;16.50;99.90;;;;;;5083078;28;20022;-69
2022/11/08 14:01:52;;;;;;;;;;;16.40;99.90;;;;;;5050344;28;19934;-69
2022/11/08 14:04:23;;;;;;;;;;;16.40;99.90;;;;;;5073493;28;19913;-69
2022/11/08 14:06:49;;;;;;;;;;;16.60;99.90;;;;;;5075126;28;19913;-71
2022/11/08 14:09:29;;;;;;;;;;;16.60;99.90;;;;;;5073499;28;19916;-72
2022/11/08 14:12:01;;;;;;;;;;;16.60;99.90;;;;;;5064079;28;20210;-71
2022/11/08 14:14:27;;;;;;;;;;;16.60;99.90;;;;;;5071297;28;20003;-71
2022/11/08 14:17:16;;;;;;;;;;;16.60;99.90;;;;;;5038471;28;19960;-72
2022/11/08 14:19:43;;;;;;;;;;;16.60;99.90;;;;;;5041392;28;20351;-71
2022/11/08 14:22:21;;;;;;;;;;;16.60;99.90;;;;;;5090266;28;19953;-72
2022/11/08 14:24:47;;;;;;;;;;;16.50;99.90;;;;;;5076715;28;19917;-71
2022/11/08 14:27:25;;;;;;;;;;;16.50;99.90;;;;;;5066623;28;20338;-71
2022/11/08 14:30:00;;;;;;;;;;;16.60;99.90;;;;;;5058327;28;19935;-71
2022/11/08 14:32:25;;;;;;;;;;;16.60;99.90;;;;;;5071571;28;20414;-71
2022/11/08 14:34:51;;;;;;;;;;;16.60;99.90;;;;;;5071169;28;19912;-71
2022/11/08 14:37:24;;;;;;;;;;;16.50;99.90;;;;;;5064521;28;19913;-71
2022/11/08 14:39:50;;;;;;;;;;;16.50;99.90;;;;;;5054739;28;20289;-72
2022/11/08 14:42:23;;;;;;;;;;;16.50;99.90;;;;;;5053683;28;20394;-72
2022/11/08 14:44:53;;;;;;;;;;;16.60;99.90;;;;;;5054020;28;20377;-71
2022/11/08 14:47:29;;;;;;;;;;;16.60;99.90;;;;;;5057317;28;19920;-72
2022/11/08 14:49:56;;;;;;;;;;;16.60;99.90;;;;;;5053815;28;19928;-71
2022/11/08 14:52:29;;;;;;;;;;;16.60;99.90;;;;;;5054784;28;20007;-71
2022/11/08 14:54:59;;;;;;;;;;;16.60;99.90;;;;;;5054821;28;19916;-71